createdAt,value
2022-12-25T00:01:56.545Z,93.60
2022-12-25T00:04:24.477Z,102.20
2022-12-25T00:07:00.556Z,103.55
2022-12-25T00:09:35.391Z,101.05
2022-12-25T00:12:03.224Z,106.35
2022-12-25T00:17:00.263Z,101.95
2022-12-25T00:19:27.305Z,107.53
2022-12-25T00:21:58.758Z,105.90
2022-12-25T00:24:36.801Z,107.87
2022-12-25T00:27:04.045Z,110.90
2022-12-25T00:29:39.644Z,110.45
2022-12-25T00:32:10.227Z,110.85
2022-12-25T00:34:43.752Z,113.15
2022-12-25T00:37:13.295Z,114.97
2022-12-25T00:39:42.092Z,113.80
2022-12-25T00:42:19.594Z,112.35
2022-12-25T00:44:51.219Z,110.72
2022-12-25T00:47:22.224Z,111.22
2022-12-25T00:49:49.476Z,107.43
2022-12-25T00:52:16.619Z,108.10
2022-12-25T00:54:43.812Z,107.07
2022-12-25T00:57:11.168Z,110.38
2022-12-25T00:59:41.275Z,110.18
2022-12-25T01:02:23.857Z,107.32
2022-12-25T01:04:54.816Z,111.35
2022-12-25T01:07:24.146Z,112.90
2022-12-25T01:10:15.948Z,107.93
2022-12-25T01:12:46.649Z,107.93
2022-12-25T01:17:42.580Z,106.70
2022-12-25T01:20:11.277Z,110.40
2022-12-25T01:22:38.499Z,108.78
2022-12-25T01:25:06.798Z,110.60
2022-12-25T01:27:36.833Z,107.97
2022-12-25T01:30:04.883Z,105.32
2022-12-25T01:32:35.086Z,103.97
2022-12-25T01:35:02.275Z,104.10
2022-12-25T01:37:29.443Z,108.55
2022-12-25T01:39:56.648Z,112.07
2022-12-25T01:42:24.241Z,109.22
2022-12-25T01:44:51.347Z,109.07
2022-12-25T01:47:19.040Z,111.25
2022-12-25T01:49:50.087Z,108.35
2022-12-25T01:52:24.734Z,109.78
2022-12-25T01:55:04.115Z,108.63
2022-12-25T01:57:33.973Z,105.43
2022-12-25T02:00:02.031Z,99.03
2022-12-25T02:02:30.230Z,104.53
2022-12-25T02:05:12.599Z,103.95
2022-12-25T02:07:43.159Z,90.40
2022-12-25T02:12:38.735Z,88.32
2022-12-25T02:15:16.379Z,97.35
2022-12-25T02:17:55.585Z,102.25
2022-12-25T02:20:41.704Z,105.30
2022-12-25T02:23:26.822Z,108.38
2022-12-25T02:26:24.001Z,106.68
2022-12-25T02:29:01.240Z,106.72
2022-12-25T02:31:49.008Z,109.13
2022-12-25T02:34:22.002Z,105.30
2022-12-25T02:37:02.811Z,102.10
2022-12-25T02:40:22.587Z,105.38
2022-12-25T02:43:14.745Z,103.28
2022-12-25T02:46:20.794Z,105.10
2022-12-25T02:49:24.375Z,103.57
2022-12-25T02:52:18.294Z,103.38
2022-12-25T02:55:09.429Z,101.88
2022-12-25T02:58:02.457Z,101.43
2022-12-25T03:00:53.830Z,105.53
2022-12-25T03:03:43.463Z,99.18
2022-12-25T03:06:30.906Z,103.43
2022-12-25T03:09:20.109Z,103.40
2022-12-25T03:11:55.248Z,103.65
2022-12-25T03:14:40.758Z,103.72
2022-12-25T03:17:08.470Z,106.13
2022-12-25T03:19:54.324Z,104.57
2022-12-25T03:22:51.264Z,109.18
2022-12-25T03:25:38.474Z,106.68
2022-12-25T03:28:06.525Z,104.70
2022-12-25T03:31:13.722Z,105.03
2022-12-25T03:34:27.992Z,103.00
2022-12-25T03:37:41.994Z,104.38
2022-12-25T03:40:40.063Z,102.25
2022-12-25T03:43:34.645Z,103.35
2022-12-25T03:46:26.057Z,102.80
2022-12-25T03:49:22.795Z,103.00
2022-12-25T03:52:10.813Z,101.28
2022-12-25T03:55:00.118Z,100.18
2022-12-25T03:57:45.974Z,101.90
2022-12-25T04:00:32.572Z,102.63
2022-12-25T04:03:21.523Z,96.28
2022-12-25T04:06:07.364Z,100.88
2022-12-25T04:08:52.988Z,103.30
2022-12-25T04:11:38.719Z,101.40
2022-12-25T04:14:24.562Z,99.18
2022-12-25T04:17:10.319Z,97.45
2022-12-25T04:19:59.384Z,95.28
2022-12-25T04:22:47.969Z,100.05
2022-12-25T04:25:33.706Z,98.57
2022-12-25T04:28:21.146Z,95.32
2022-12-25T04:31:09.192Z,95.60
2022-12-25T04:34:08.282Z,97.10
2022-12-25T04:36:35.611Z,94.50
2022-12-25T04:39:03.001Z,99.07
2022-12-25T04:41:30.307Z,97.95
2022-12-25T04:43:57.554Z,99.55
2022-12-25T04:46:24.846Z,97.95
2022-12-25T04:48:52.116Z,100.20
2022-12-25T04:51:25.434Z,101.07
2022-12-25T04:53:53.930Z,97.30
2022-12-25T04:56:21.561Z,96.50
2022-12-25T04:58:49.633Z,96.38
2022-12-25T05:01:17.469Z,101.18
2022-12-25T05:03:52.293Z,98.60
2022-12-25T05:06:19.652Z,101.38
2022-12-25T05:08:47.139Z,98.22
2022-12-25T05:11:16.370Z,100.45
2022-12-25T05:13:44.053Z,98.53
2022-12-25T05:16:18.021Z,100.50
2022-12-25T05:18:52.342Z,98.93
2022-12-25T05:21:20.239Z,97.43
2022-12-25T05:23:51.525Z,98.70
2022-12-25T05:26:23.229Z,97.10
2022-12-25T05:28:50.801Z,95.57
2022-12-25T05:31:18.825Z,94.80
2022-12-25T05:33:46.257Z,97.80
2022-12-25T05:36:14.505Z,96.20
2022-12-25T05:38:45.007Z,96.22
2022-12-25T05:41:14.993Z,96.68
2022-12-25T05:43:42.416Z,96.70
2022-12-25T05:46:13.126Z,98.45
2022-12-25T05:48:40.740Z,95.47
2022-12-25T05:51:12.463Z,92.13
2022-12-25T05:53:41.793Z,92.20
2022-12-25T05:56:10.133Z,91.72
2022-12-25T05:58:39.277Z,94.43
2022-12-25T06:01:16.282Z,97.03
2022-12-25T06:03:44.041Z,99.85
2022-12-25T06:06:11.989Z,99.65
2022-12-25T06:08:39.425Z,101.22
2022-12-25T06:11:11.639Z,96.63
2022-12-25T06:13:38.863Z,96.78
2022-12-25T06:16:08.001Z,98.35
2022-12-25T06:18:39.760Z,99.25
2022-12-25T06:21:13.953Z,96.28
2022-12-25T06:23:42.520Z,96.97
2022-12-25T06:26:17.725Z,94.93
2022-12-25T06:28:46.002Z,96.43
2022-12-25T06:31:17.324Z,101.05
2022-12-25T06:33:45.097Z,97.97
2022-12-25T06:36:19.486Z,97.82
2022-12-25T06:38:47.116Z,96.55
2022-12-25T06:41:23.097Z,98.20
2022-12-25T06:43:56.049Z,95.07
2022-12-25T06:46:26.040Z,92.13
2022-12-25T06:48:57.577Z,84.45
2022-12-25T06:51:27.988Z,93.13
2022-12-25T06:53:55.923Z,89.72
2022-12-25T06:56:26.011Z,94.75
2022-12-25T06:58:55.658Z,93.15
2022-12-25T07:01:34.062Z,90.20
2022-12-25T07:04:07.746Z,94.72
2022-12-25T07:06:34.890Z,94.18
2022-12-25T07:09:04.829Z,96.53
2022-12-25T07:11:34.607Z,98.68
2022-12-25T07:14:04.375Z,98.82
2022-12-25T07:16:31.550Z,95.50
2022-12-25T07:19:01.783Z,93.00
2022-12-25T07:21:28.914Z,97.72
2022-12-25T07:23:56.117Z,101.32
2022-12-25T07:26:23.253Z,104.57
2022-12-25T07:28:50.556Z,106.22
2022-12-25T07:31:19.132Z,108.80
2022-12-25T07:33:46.645Z,110.22
2022-12-25T07:36:15.731Z,114.60
2022-12-25T07:38:43.601Z,117.03
2022-12-25T07:41:12.971Z,119.55
2022-12-25T07:43:43.302Z,119.50
2022-12-25T07:46:11.220Z,120.72
2022-12-25T07:48:42.766Z,119.95
2022-12-25T07:51:12.852Z,119.47
2022-12-25T07:53:41.143Z,121.15
2022-12-25T07:56:12.714Z,116.75
2022-12-25T07:58:40.470Z,115.43
2022-12-25T08:01:22.856Z,115.97
2022-12-25T08:03:52.325Z,116.57
2022-12-25T08:06:20.712Z,118.60
2022-12-25T08:08:48.323Z,117.43
2022-12-25T08:11:21.479Z,111.45
2022-12-25T08:13:48.936Z,109.32
2022-12-25T08:16:16.831Z,108.57
2022-12-25T08:18:44.499Z,109.07
2022-12-25T08:21:14.395Z,110.00
2022-12-25T08:23:46.123Z,110.22
2022-12-25T08:26:20.288Z,108.03
2022-12-25T08:28:49.012Z,106.78
2022-12-25T08:31:21.095Z,102.93
2022-12-25T08:33:49.981Z,108.07
2022-12-25T08:36:18.256Z,110.75
2022-12-25T08:38:46.087Z,114.65
2022-12-25T08:41:14.497Z,113.47
2022-12-25T08:43:46.001Z,111.85
2022-12-25T08:46:14.139Z,101.15
2022-12-25T08:48:49.163Z,96.10
2022-12-25T08:51:21.539Z,84.90
2022-12-25T08:53:50.239Z,77.72
2022-12-25T08:56:18.543Z,73.95
2022-12-25T08:58:48.473Z,69.90
2022-12-25T09:01:15.795Z,70.22
2022-12-25T09:03:43.869Z,80.57
2022-12-25T09:06:14.947Z,97.25
2022-12-25T09:08:49.670Z,68.72
2022-12-25T09:11:19.576Z,65.63
2022-12-25T09:13:47.473Z,69.43
2022-12-25T09:16:21.627Z,73.88
2022-12-25T09:18:51.751Z,84.78
2022-12-25T09:21:19.296Z,81.22
2022-12-25T09:23:47.082Z,81.57
2022-12-25T09:26:18.738Z,81.03
2022-12-25T09:28:51.234Z,75.95
2022-12-25T09:31:22.292Z,73.35
2022-12-25T09:33:50.819Z,70.85
2022-12-25T09:36:18.124Z,71.65
2022-12-25T09:38:45.332Z,68.25
2022-12-25T09:41:29.801Z,72.07
2022-12-25T09:44:09.236Z,73.72
2022-12-25T09:46:50.059Z,71.70
2022-12-25T09:49:38.551Z,72.63
2022-12-25T09:52:11.984Z,72.20
2022-12-25T09:54:44.824Z,72.35
2022-12-25T09:57:14.258Z,68.43
2022-12-25T09:59:44.923Z,69.93
2022-12-25T10:04:50.904Z,61.10
2022-12-25T10:07:42.231Z,62.97
2022-12-25T10:10:45.082Z,66.07
2022-12-25T10:13:45.022Z,104.35
2022-12-25T10:16:29.486Z,75.07
2022-12-25T10:19:08.672Z,84.22
2022-12-25T10:21:36.584Z,68.63
2022-12-25T10:24:35.564Z,131.93
2022-12-25T10:27:12.887Z,102.07
2022-12-25T10:29:41.268Z,73.57
2022-12-25T10:32:11.458Z,81.38
2022-12-25T10:34:41.885Z,62.40
2022-12-25T10:37:13.523Z,52.38
2022-12-25T10:39:46.034Z,49.35
2022-12-25T10:42:44.563Z,48.75
2022-12-25T10:45:19.910Z,47.15
2022-12-25T10:47:52.986Z,42.65
2022-12-25T10:50:26.952Z,42.47
2022-12-25T10:53:09.902Z,42.33
2022-12-25T10:55:37.169Z,43.72
2022-12-25T10:58:06.517Z,40.92
2022-12-25T11:00:37.154Z,40.80
2022-12-25T11:05:37.259Z,38.83
2022-12-25T11:08:15.992Z,34.00
2022-12-25T11:10:47.438Z,31.45
2022-12-25T11:13:28.291Z,31.00
2022-12-25T11:16:06.801Z,28.80
2022-12-25T11:18:43.692Z,30.40
2022-12-25T11:21:18.701Z,34.08
2022-12-25T11:23:51.371Z,33.50
2022-12-25T11:26:19.140Z,34.25
2022-12-25T11:28:49.119Z,35.15
2022-12-25T11:31:19.919Z,36.10
2022-12-25T11:33:47.191Z,33.97
2022-12-25T11:36:49.756Z,33.58
2022-12-25T11:39:38.663Z,30.67
2022-12-25T11:42:44.350Z,29.95
2022-12-25T11:45:13.892Z,30.95
2022-12-25T11:47:53.590Z,29.27
2022-12-25T11:50:37.176Z,28.37
2022-12-25T11:53:22.699Z,28.45
2022-12-25T11:55:57.526Z,27.63
2022-12-25T11:58:42.080Z,28.45
2022-12-25T12:01:44.582Z,29.52
2022-12-25T12:04:29.457Z,28.10
2022-12-25T12:07:07.299Z,27.45
2022-12-25T12:09:39.696Z,26.08
2022-12-25T12:12:32.194Z,25.65
2022-12-25T12:15:13.799Z,26.02
2022-12-25T12:17:41.014Z,55.47
2022-12-25T12:20:33.703Z,61.45
2022-12-25T12:23:12.741Z,41.30
2022-12-25T12:25:53.545Z,38.80
2022-12-25T12:28:38.481Z,32.78
2022-12-25T12:31:08.340Z,41.25
2022-12-25T12:33:43.303Z,27.80
2022-12-25T12:36:17.390Z,24.60
2022-12-25T12:38:45.024Z,22.30
2022-12-25T12:41:18.504Z,21.60
2022-12-25T12:43:59.304Z,21.13
2022-12-25T12:46:35.556Z,21.55
2022-12-25T12:49:30.589Z,20.63
2022-12-25T12:52:38.935Z,20.50
2022-12-25T12:55:15.087Z,20.55
2022-12-25T12:57:43.304Z,19.77
2022-12-25T13:00:20.803Z,18.45
2022-12-25T13:03:30.956Z,20.55
2022-12-25T13:06:46.829Z,19.38
2022-12-25T13:09:51.946Z,18.92
2022-12-25T13:12:24.693Z,20.77
2022-12-25T13:14:52.067Z,22.50
2022-12-25T13:17:23.059Z,20.48
2022-12-25T13:19:57.544Z,19.98
2022-12-25T13:22:36.204Z,19.30
2022-12-25T13:25:20.537Z,18.60
2022-12-25T13:27:57.961Z,18.60
2022-12-25T13:30:26.845Z,17.55
2022-12-25T13:32:55.353Z,18.45
2022-12-25T13:35:29.052Z,17.52
2022-12-25T13:38:01.295Z,18.55
2022-12-25T13:40:29.370Z,17.30
2022-12-25T13:43:01.631Z,18.58
2022-12-25T13:45:33.426Z,18.83
2022-12-25T13:48:19.935Z,47.78
2022-12-25T13:50:58.406Z,48.92
2022-12-25T13:53:28.773Z,67.20
2022-12-25T13:55:58.687Z,48.78
2022-12-25T13:58:34.026Z,55.22
2022-12-25T14:01:03.237Z,70.72
2022-12-25T14:03:39.967Z,71.07
2022-12-25T14:06:31.197Z,57.78
2022-12-25T14:08:59.927Z,84.32
2022-12-25T14:11:31.363Z,56.67
2022-12-25T14:14:05.974Z,63.80
2022-12-25T14:16:55.281Z,34.35
2022-12-25T14:19:40.225Z,19.35
2022-12-25T14:22:24.632Z,17.45
2022-12-25T14:24:55.711Z,17.13
2022-12-25T14:27:30.713Z,16.63
2022-12-25T14:30:06.287Z,15.98
2022-12-25T14:32:44.276Z,16.50
2022-12-25T14:35:23.143Z,16.70
2022-12-25T14:38:03.626Z,16.17
2022-12-25T14:40:49.426Z,15.48
2022-12-25T14:43:35.230Z,15.95
2022-12-25T14:46:41.585Z,21.33
2022-12-25T14:49:28.247Z,26.23
2022-12-25T14:52:14.914Z,24.40
2022-12-25T14:54:54.643Z,22.98
2022-12-25T14:58:04.927Z,29.92
2022-12-25T15:00:52.607Z,29.23
2022-12-25T15:03:51.899Z,30.85
2022-12-25T15:06:37.275Z,31.15
2022-12-25T15:09:19.649Z,33.50
2022-12-25T15:12:01.212Z,30.17
2022-12-25T15:14:43.967Z,35.95
2022-12-25T15:17:24.661Z,37.40
2022-12-25T15:22:26.306Z,44.42
2022-12-25T15:25:01.696Z,48.10
2022-12-25T15:27:29.937Z,51.75
2022-12-25T15:30:09.724Z,28.83
2022-12-25T15:32:38.173Z,23.80
2022-12-25T15:35:05.977Z,18.75
2022-12-25T15:37:33.207Z,16.40
2022-12-25T15:40:05.612Z,22.33
2022-12-25T15:42:33.904Z,23.42
2022-12-25T15:45:01.033Z,26.58
2022-12-25T15:47:32.732Z,22.85
2022-12-25T15:50:02.736Z,24.02
2022-12-25T15:52:30.065Z,27.08
2022-12-25T15:54:57.265Z,26.77
2022-12-25T15:57:26.359Z,26.88
2022-12-25T15:59:53.487Z,26.40
2022-12-25T16:02:21.576Z,27.58
2022-12-25T16:04:51.209Z,28.35
2022-12-25T16:07:29.605Z,31.33
2022-12-25T16:09:56.739Z,75.32
2022-12-25T16:12:27.233Z,74.72
2022-12-25T16:15:02.823Z,81.70
2022-12-25T16:17:31.134Z,66.97
2022-12-25T16:19:59.996Z,54.15
2022-12-25T16:22:30.885Z,58.30
2022-12-25T16:25:07.740Z,46.20
2022-12-25T16:27:36.453Z,44.42
2022-12-25T16:30:04.607Z,48.10
2022-12-25T16:32:31.860Z,47.08
2022-12-25T16:35:00.372Z,47.17
2022-12-25T16:37:28.039Z,45.08
2022-12-25T16:39:55.392Z,48.20
2022-12-25T16:42:23.317Z,85.75
2022-12-25T16:44:50.931Z,51.75
2022-12-25T16:47:21.448Z,47.63
2022-12-25T16:49:50.539Z,45.05
2022-12-25T16:52:18.165Z,39.35
2022-12-25T16:54:46.828Z,39.60
2022-12-25T16:57:14.665Z,44.38
2022-12-25T16:59:42.046Z,43.03
2022-12-25T17:02:16.404Z,40.58
2022-12-25T17:04:48.494Z,36.65
2022-12-25T17:07:17.532Z,35.83
2022-12-25T17:09:59.986Z,37.65
2022-12-25T17:12:28.509Z,37.03
2022-12-25T17:14:59.235Z,35.42
2022-12-25T17:17:32.770Z,32.85
2022-12-25T17:20:00.190Z,28.02
2022-12-25T17:22:29.658Z,27.05
2022-12-25T17:24:56.808Z,36.20
2022-12-25T17:27:23.913Z,32.15
2022-12-25T17:29:56.647Z,32.42
2022-12-25T17:32:26.949Z,32.63
2022-12-25T17:34:56.999Z,29.77
2022-12-25T17:37:25.276Z,30.38
2022-12-25T17:39:56.129Z,29.80
2022-12-25T17:42:23.676Z,28.35
2022-12-25T17:44:50.953Z,31.13
2022-12-25T17:47:18.432Z,32.13
2022-12-25T17:49:45.542Z,34.97
2022-12-25T17:52:13.186Z,38.88
2022-12-25T17:54:40.982Z,43.78
2022-12-25T17:57:08.288Z,49.25
2022-12-25T17:59:35.673Z,53.78
2022-12-25T18:02:03.327Z,59.88
2022-12-25T18:04:30.939Z,56.35
2022-12-25T18:06:58.202Z,55.67
2022-12-25T18:09:25.466Z,59.70
2022-12-25T18:11:52.603Z,60.00
2022-12-25T18:14:20.138Z,58.53
2022-12-25T18:16:48.053Z,53.75
2022-12-25T18:19:17.753Z,52.78
2022-12-25T18:21:53.076Z,57.03
2022-12-25T18:24:27.139Z,60.13
2022-12-25T18:26:56.619Z,58.88
2022-12-25T18:29:23.982Z,56.05
2022-12-25T18:31:55.848Z,57.55
2022-12-25T18:34:23.526Z,56.20
2022-12-25T18:36:52.597Z,57.35
2022-12-25T18:39:19.856Z,57.83
2022-12-25T18:42:06.415Z,55.63
2022-12-25T18:44:36.640Z,57.47
2022-12-25T18:47:08.325Z,65.45
2022-12-25T18:49:38.589Z,57.03
2022-12-25T18:52:47.612Z,54.40
2022-12-25T18:54:55.405Z,49.95
2022-12-25T18:57:22.801Z,45.58
2022-12-25T18:59:57.338Z,42.75
2022-12-25T19:02:24.692Z,44.22
2022-12-25T19:04:54.540Z,52.25
2022-12-25T19:07:23.226Z,35.10
2022-12-25T19:12:35.549Z,29.55
2022-12-25T19:15:03.151Z,34.25
2022-12-25T19:17:32.143Z,36.05
2022-12-25T19:19:59.779Z,36.60
2022-12-25T19:22:27.336Z,29.98
2022-12-25T19:24:55.185Z,30.08
2022-12-25T19:27:22.683Z,46.85
2022-12-25T19:29:49.886Z,84.53
2022-12-25T19:32:17.372Z,48.83
2022-12-25T19:34:46.517Z,35.42
2022-12-25T19:37:19.372Z,32.60
2022-12-25T19:39:47.003Z,74.00
2022-12-25T19:42:18.973Z,58.55
2022-12-25T19:44:47.476Z,50.67
2022-12-25T19:47:16.895Z,75.47
2022-12-25T19:49:52.560Z,85.97
2022-12-25T19:52:24.609Z,110.53
2022-12-25T19:54:52.947Z,48.65
2022-12-25T19:57:23.124Z,41.70
2022-12-25T19:59:50.305Z,40.92
2022-12-25T20:02:17.669Z,33.65
2022-12-25T20:04:48.674Z,32.47
2022-12-25T20:07:19.509Z,37.55
2022-12-25T20:09:51.197Z,42.25
2022-12-25T20:12:21.227Z,39.20
2022-12-25T20:14:49.551Z,40.63
2022-12-25T20:17:17.081Z,42.88
2022-12-25T20:19:44.272Z,61.08
2022-12-25T20:22:14.767Z,68.93
2022-12-25T20:24:45.868Z,83.15
2022-12-25T20:29:40.655Z,79.43
2022-12-25T20:32:09.153Z,91.30
2022-12-25T20:34:39.122Z,93.28
2022-12-25T20:40:13.998Z,120.30
2022-12-25T20:45:32.730Z,93.22
2022-12-25T20:48:03.821Z,88.78
2022-12-25T20:50:51.684Z,87.43
2022-12-25T20:53:34.096Z,102.30
2022-12-25T20:56:01.888Z,97.18
2022-12-25T20:58:33.253Z,81.38
2022-12-25T21:01:12.851Z,79.93
2022-12-25T21:03:42.298Z,69.53
2022-12-25T21:06:13.401Z,69.07
2022-12-25T21:08:42.545Z,71.22
2022-12-25T21:11:10.617Z,68.22
2022-12-25T21:13:41.056Z,70.82
2022-12-25T21:16:11.723Z,68.50
2022-12-25T21:18:39.724Z,63.67
2022-12-25T21:21:07.995Z,62.47
2022-12-25T21:23:40.714Z,65.07
2022-12-25T21:26:20.845Z,69.00
2022-12-25T21:28:49.886Z,73.00
2022-12-25T21:31:18.812Z,69.50
2022-12-25T21:33:52.215Z,68.20
2022-12-25T21:36:28.321Z,64.57
2022-12-25T21:39:12.015Z,72.53
2022-12-25T21:41:42.410Z,75.35
2022-12-25T21:44:11.498Z,91.47
2022-12-25T21:46:38.916Z,70.32
2022-12-25T21:49:06.464Z,67.97
2022-12-25T21:51:53.085Z,65.40
2022-12-25T21:54:23.790Z,65.80
2022-12-25T21:59:22.773Z,65.78
2022-12-25T22:01:51.803Z,64.88
2022-12-25T22:04:22.016Z,67.03
2022-12-25T22:07:08.228Z,69.50
2022-12-25T22:09:35.782Z,66.55
2022-12-25T22:12:22.523Z,66.60
2022-12-25T22:14:56.611Z,67.75
2022-12-25T22:17:49.203Z,64.93
2022-12-25T22:20:26.373Z,66.20
2022-12-25T22:22:54.769Z,68.10
2022-12-25T22:25:22.451Z,72.05
2022-12-25T22:27:50.122Z,72.88
2022-12-25T22:30:20.537Z,66.43
2022-12-25T22:32:48.457Z,71.70
2022-12-25T22:35:20.054Z,70.32
2022-12-25T22:37:48.486Z,72.40
2022-12-25T22:40:24.000Z,75.82
2022-12-25T22:42:57.470Z,77.63
2022-12-25T22:45:27.753Z,98.03
2022-12-25T22:47:55.286Z,111.13
2022-12-25T22:50:23.313Z,90.22
2022-12-25T22:52:50.927Z,73.00
2022-12-25T22:55:20.569Z,70.25
2022-12-25T22:57:52.256Z,74.17
2022-12-25T23:00:27.759Z,79.97
2022-12-25T23:02:55.111Z,76.75
2022-12-25T23:05:23.246Z,80.30
2022-12-25T23:07:50.741Z,75.43
2022-12-25T23:10:19.262Z,80.10
2022-12-25T23:13:05.344Z,78.55
2022-12-25T23:15:33.032Z,79.10
2022-12-25T23:18:19.476Z,77.32
2022-12-25T23:21:05.111Z,74.25
2022-12-25T23:23:50.895Z,74.32
2022-12-25T23:26:20.865Z,69.38
2022-12-25T23:29:10.059Z,69.25
2022-12-25T23:31:41.423Z,71.43
2022-12-25T23:36:36.037Z,74.30
2022-12-25T23:39:09.673Z,72.07
2022-12-25T23:41:40.392Z,73.40
2022-12-25T23:44:09.521Z,74.50
2022-12-25T23:46:37.365Z,70.80
2022-12-25T23:49:05.097Z,78.68
2022-12-25T23:51:32.410Z,82.28
2022-12-25T23:54:03.029Z,84.90
2022-12-25T23:59:00.427Z,84.53
